Portada
Imágenes satélite Pronóstico 15 díasClimaPredicción Marítima Ciclones Rayo AeropuertosFAQ Noticias Acerca
El tiempo : Europa África América del Norte América del Sur Asia Australia-Oceanía Otros
Idiomas Contacto

Valencia, España

latitud: 39-30N, longitud: 000-28W, altitud: 69 m


METAR: LEVC 230900Z VRB02KT 9999 FEW030 21/07 Q1020 NOSIG
short-TAF: expira (47879 horas)
long-TAF: LEVC 230503Z 2306/2406 30005KT 9999 FEW030 TX26/2313Z TN12/2406Z BECMG 2310/2313 11010KT BECMG 2316/2319 04005KT

Hora: 11:12 (09:12 UTC)

Observación

El informe se hizo hace 12 minutos, a las 09:00 UTC  
Viento 02 kt con dirección variable
Temperatura 21°C
Humedad 40%
Presión 1020 hPa
Visibilidad 10 km o más
Escasas nubes a una altura de 3000 ft

Cambiar las unidades

Pronóstico

El informe se hizo hace 3 horas y 45 minutos, a las 05:27 UTC  
Pronóstico válido del 23 a las 06 UTC al 24 a las 06 UTC
Viento 05 kt del oeste-noroeste
Visibilidad 10 km o más
Escasas nubes a una altura de 3000 ft
Evolucionando progresivamente
del 23 a las 10 UTC al 23 a las 13 UTC
Viento 10 kt del este-sureste
Evolucionando progresivamente
del 23 a las 16 UTC al 23 a las 19 UTC
Viento 05 kt del noreste
La información que se ofrece en estas páginas está sujeta a una cláusula de exención de responsabilidad
El tiempo : Europa África América del Norte América del Sur Asia Australia-Oceanía Otros
Imágenes satélite Pronóstico 15 díasClimaPredicción Marítima Ciclones Rayo AeropuertosFAQ Idiomas Contacto Noticias Acerca